createdAt,value
2022-08-17T00:33:42.401Z,99.60
2022-08-17T00:44:05.603Z,99.36
2022-08-17T00:54:41.828Z,99.32
2022-08-17T01:05:07.627Z,97.33
2022-08-17T01:15:34.924Z,99.27
2022-08-17T01:25:58.696Z,100.00
2022-08-17T01:36:21.036Z,100.00
2022-08-17T01:46:42.625Z,100.00
2022-08-17T01:57:04.537Z,100.00
2022-08-17T02:07:27.125Z,100.00
2022-08-17T02:17:49.135Z,100.00
2022-08-17T02:28:17.679Z,100.00
2022-08-17T02:38:40.613Z,100.00
2022-08-17T02:49:02.215Z,100.00
2022-08-17T02:59:24.369Z,100.00
2022-08-17T03:09:45.958Z,100.00
2022-08-17T03:20:08.785Z,100.00
2022-08-17T03:30:30.459Z,100.00
2022-08-17T03:40:59.056Z,100.00
2022-08-17T03:51:42.268Z,100.00
2022-08-17T04:02:11.462Z,100.00
2022-08-17T04:12:49.724Z,100.00
2022-08-17T04:23:17.635Z,100.00
2022-08-17T04:33:44.106Z,100.00
2022-08-17T04:44:05.630Z,100.00
2022-08-17T04:54:27.235Z,100.00
2022-08-17T05:04:48.743Z,100.00
2022-08-17T05:15:14.267Z,100.00
2022-08-17T05:25:39.488Z,100.00
2022-08-17T05:36:04.221Z,100.00
2022-08-17T05:46:28.816Z,100.00
2022-08-17T05:56:53.209Z,100.00
2022-08-17T06:07:25.840Z,100.00
2022-08-17T06:17:47.497Z,100.00
2022-08-17T06:28:14.672Z,100.00
2022-08-17T06:38:47.425Z,100.00
2022-08-17T06:49:21.924Z,100.00
2022-08-17T06:59:56.145Z,100.00
2022-08-17T07:10:20.311Z,100.00
2022-08-17T07:20:47.997Z,99.34
2022-08-17T07:31:13.264Z,99.61
2022-08-17T07:41:57.632Z,98.18
2022-08-17T07:52:50.594Z,97.06
2022-08-17T08:03:23.725Z,96.10
2022-08-17T08:13:49.888Z,94.78
2022-08-17T08:24:41.013Z,94.17
2022-08-17T08:35:13.574Z,92.10
2022-08-17T08:45:56.434Z,90.53
2022-08-17T08:56:29.633Z,90.10
2022-08-17T09:07:16.251Z,88.71
2022-08-17T09:18:14.939Z,86.05
2022-08-17T09:28:44.778Z,85.38
2022-08-17T09:39:12.415Z,83.18
2022-08-17T09:49:42.694Z,82.43
2022-08-17T10:00:29.291Z,81.04
2022-08-17T10:11:13.883Z,81.29
2022-08-17T10:22:00.841Z,76.63
2022-08-17T10:32:39.738Z,76.86
2022-08-17T10:43:22.908Z,75.93
2022-08-17T10:53:46.110Z,74.91
2022-08-17T11:04:27.261Z,75.27
2022-08-17T11:15:04.425Z,72.78
2022-08-17T11:25:40.593Z,73.87
2022-08-17T11:36:14.370Z,72.76
2022-08-17T11:47:12.865Z,70.95
2022-08-17T11:57:40.547Z,68.80
2022-08-17T12:08:19.998Z,69.79
2022-08-17T12:18:53.779Z,66.34
2022-08-17T12:29:18.075Z,65.71
2022-08-17T12:40:03.866Z,64.84
2022-08-17T12:50:29.144Z,67.35
2022-08-17T13:01:00.164Z,66.16
2022-08-17T13:11:24.802Z,65.57
2022-08-17T13:21:58.581Z,64.47
2022-08-17T13:32:33.484Z,65.66
2022-08-17T13:42:56.500Z,68.54
2022-08-17T13:53:24.054Z,73.24
2022-08-17T14:03:46.013Z,75.75
2022-08-17T14:14:14.433Z,77.50
2022-08-17T14:24:44.611Z,76.77
2022-08-17T14:35:09.028Z,71.10
2022-08-17T14:45:33.253Z,67.67
2022-08-17T14:55:55.176Z,67.14
2022-08-17T15:06:17.248Z,65.28
2022-08-17T15:16:39.035Z,86.42
2022-08-17T15:27:00.568Z,98.25
2022-08-17T15:37:22.377Z,100.00
2022-08-17T15:47:44.013Z,99.89
2022-08-17T15:58:06.359Z,100.00
2022-08-17T16:08:28.829Z,100.00
2022-08-17T16:18:53.610Z,100.00
2022-08-17T16:29:17.888Z,100.00
2022-08-17T16:39:39.840Z,100.00
2022-08-17T16:50:03.836Z,100.00
2022-08-17T17:00:25.418Z,100.00
2022-08-17T17:10:50.761Z,100.00
2022-08-17T17:21:25.355Z,100.00
2022-08-17T17:32:13.743Z,100.00
2022-08-17T17:42:42.632Z,100.00
2022-08-17T17:53:34.986Z,97.63
2022-08-17T18:04:21.595Z,100.00
2022-08-17T18:14:46.173Z,100.00
2022-08-17T18:25:44.795Z,100.00
2022-08-17T18:36:07.092Z,100.00
2022-08-17T18:46:35.128Z,100.00
2022-08-17T18:57:00.287Z,100.00
2022-08-17T19:07:25.073Z,100.00
2022-08-17T19:18:00.148Z,100.00
2022-08-17T19:28:36.836Z,100.00
2022-08-17T19:39:38.403Z,100.00
2022-08-17T19:50:12.078Z,100.00
2022-08-17T20:00:39.597Z,100.00
2022-08-17T20:11:09.159Z,100.00
2022-08-17T20:21:45.938Z,100.00
2022-08-17T20:32:22.468Z,100.00
2022-08-17T20:42:44.068Z,100.00
2022-08-17T20:53:09.962Z,100.00
2022-08-17T21:03:39.985Z,100.00
2022-08-17T21:14:38.005Z,100.00
2022-08-17T21:25:14.724Z,100.00
2022-08-17T21:36:17.725Z,100.00
2022-08-17T21:46:42.960Z,100.00
2022-08-17T21:57:17.485Z,100.00
2022-08-17T22:07:47.741Z,100.00
2022-08-17T22:18:21.925Z,100.00
2022-08-17T22:28:47.470Z,100.00
2022-08-17T22:39:08.930Z,100.00
2022-08-17T22:49:56.452Z,100.00
2022-08-17T23:00:49.098Z,100.00
2022-08-17T23:11:10.627Z,100.00
2022-08-17T23:21:32.214Z,100.00
2022-08-17T23:32:01.204Z,100.00
2022-08-17T23:42:23.175Z,100.00
2022-08-17T23:52:46.653Z,100.00
